Time;durP1;ratioP1;P1;durP2;ratioP2;P2;SDS_P1;SDS_P2;PMS_P1;PMS_P2;Temp;Humidity;BMP_temperature;BMP_pressure;BME280_temperature;BME280_humidity;BME280_pressure;Samples;Min_cycle;Max_cycle;Signal;HPM_P1;HPM_P2
2022/08/05 00:00:16;;;;;;;6.05;3.83;;;23.50;96.90;;;;;;5029421;28;20251;-39
2022/08/05 00:02:46;;;;;;;6.13;3.90;;;23.50;97.10;;;;;;5032069;28;20224;-39
2022/08/05 00:05:22;;;;;;;6.20;3.60;;;23.50;97.00;;;;;;5030737;28;20315;-39
2022/08/05 00:08:09;;;;;;;4.82;3.67;;;23.50;97.10;;;;;;5031843;28;20208;-35
2022/08/05 00:10:57;;;;;;;8.93;4.43;;;23.50;97.00;;;;;;5031878;28;20575;-35
2022/08/05 00:13:32;;;;;;;5.72;3.78;;;23.50;97.20;;;;;;5032132;28;20250;-34
2022/08/05 00:16:08;;;;;;;7.13;3.65;;;23.50;97.00;;;;;;5031862;28;20287;-34
2022/08/05 00:18:40;;;;;;;6.15;3.80;;;23.50;97.50;;;;;;5031507;28;20749;-34
2022/08/05 00:21:08;;;;;;;5.40;3.50;;;23.50;97.10;;;;;;5030280;28;20324;-39
2022/08/05 00:23:39;;;;;;;3.80;3.13;;;23.50;97.40;;;;;;5010970;28;20340;-39
2022/08/05 00:26:14;;;;;;;5.13;3.53;;;23.50;97.10;;;;;;5013080;28;20215;-39
2022/08/05 00:28:43;;;;;;;6.15;3.50;;;23.50;97.10;;;;;;5010663;28;20226;-39
2022/08/05 00:31:12;;;;;;;5.68;3.35;;;23.50;97.10;;;;;;5049741;28;20204;-38
2022/08/05 00:33:39;;;;;;;4.07;2.92;;;23.50;97.10;;;;;;5051235;28;20208;-39
2022/08/05 00:36:27;;;;;;;5.95;3.00;;;23.50;97.40;;;;;;5051305;28;20833;-35
2022/08/05 00:39:14;;;;;;;6.25;3.13;;;23.50;97.20;;;;;;5012730;28;20201;-34
2022/08/05 00:41:46;;;;;;;4.65;3.03;;;23.40;97.20;;;;;;5015706;28;20221;-34
2022/08/05 00:44:27;;;;;;;9.55;2.67;;;23.50;97.10;;;;;;5031326;28;20247;-35
2022/08/05 00:46:58;;;;;;;7.25;2.72;;;23.40;97.10;;;;;;5031643;28;20223;-35
2022/08/05 00:49:33;;;;;;;5.03;2.80;;;23.40;97.10;;;;;;5029587;28;20323;-35
2022/08/05 00:52:19;;;;;;;4.47;2.95;;;23.40;97.20;;;;;;5031402;28;20209;-35
2022/08/05 00:54:57;;;;;;;7.10;3.50;;;23.30;97.30;;;;;;5030917;28;20201;-36
2022/08/05 00:57:24;;;;;;;6.07;3.13;;;23.30;97.40;;;;;;5024319;28;20205;-35
2022/08/05 01:00:12;;;;;;;6.32;3.47;;;23.30;97.30;;;;;;5013961;28;20237;-35
2022/08/05 01:02:42;;;;;;;3.47;2.80;;;23.30;97.30;;;;;;5011992;28;20198;-35
2022/08/05 01:05:12;;;;;;;7.10;3.22;;;23.20;97.20;;;;;;5010821;28;20264;-35
2022/08/05 01:07:42;;;;;;;9.27;3.83;;;23.20;97.40;;;;;;5024721;28;20235;-34
2022/08/05 01:10:56;;;;;;;6.65;3.85;;;23.20;97.80;;;;;;5010059;28;20214;-36
2022/08/05 01:13:40;;;;;;;8.52;3.40;;;23.20;97.90;;;;;;5016241;28;20229;-35
2022/08/05 01:16:59;;;;;;;7.35;3.53;;;23.20;97.80;;;;;;5012895;28;20201;-35
2022/08/05 01:19:49;;;;;;;6.05;3.78;;;23.20;97.50;;;;;;5002633;28;20209;-36
2022/08/05 01:22:47;;;;;;;4.53;3.50;;;23.00;98.00;;;;;;4996207;28;20722;-35
2022/08/05 01:25:36;;;;;;;4.60;3.42;;;22.90;97.70;;;;;;5013632;28;20236;-35
2022/08/05 01:28:31;;;;;;;6.10;3.53;;;22.90;98.20;;;;;;5014180;28;20201;-34
2022/08/05 01:31:20;;;;;;;7.78;3.97;;;22.80;98.70;;;;;;5028698;28;20219;-35
2022/08/05 01:33:54;;;;;;;6.47;3.85;;;22.80;98.00;;;;;;5016874;28;20229;-35
2022/08/05 01:36:25;;;;;;;4.07;3.65;;;22.70;97.90;;;;;;5010220;28;20201;-35
2022/08/05 01:38:56;;;;;;;7.70;4.30;;;22.70;98.00;;;;;;5028608;28;20391;-35
2022/08/05 01:41:31;;;;;;;6.40;4.10;;;22.80;98.00;;;;;;5029476;28;20224;-35
2022/08/05 01:44:01;;;;;;;6.60;3.90;;;22.80;98.00;;;;;;5030672;28;20205;-35
2022/08/05 01:46:30;;;;;;;10.32;4.28;;;22.80;97.90;;;;;;5028173;28;20219;-34
2022/08/05 01:49:19;;;;;;;5.82;4.32;;;22.80;97.80;;;;;;5009951;28;20236;-35
2022/08/05 01:51:56;;;;;;;5.93;4.20;;;22.70;97.80;;;;;;5010282;28;20580;-35
2022/08/05 01:54:44;;;;;;;4.50;3.60;;;22.70;97.90;;;;;;5010451;28;20554;-36
2022/08/05 01:57:17;;;;;;;5.80;4.50;;;22.70;98.10;;;;;;5010618;28;20623;-35
2022/08/05 02:00:11;;;;;;;7.97;4.03;;;22.60;98.10;;;;;;5008967;28;20723;-34
2022/08/05 02:02:54;;;;;;;5.47;3.83;;;22.60;97.80;;;;;;5020622;28;20672;-36
2022/08/05 02:05:30;;;;;;;5.90;3.70;;;22.60;97.90;;;;;;5026947;28;20216;-36
2022/08/05 02:08:00;;;;;;;5.47;4.10;;;22.60;97.90;;;;;;5018639;28;20690;-36
2022/08/05 02:10:35;;;;;;;6.68;4.10;;;22.50;98.20;;;;;;5029909;28;20635;-36
2022/08/05 02:13:13;;;;;;;8.38;3.90;;;22.50;98.20;;;;;;5029927;28;20279;-36
2022/08/05 02:15:52;;;;;;;6.72;4.05;;;22.40;98.10;;;;;;5030019;28;20248;-36
2022/08/05 02:18:37;;;;;;;6.25;3.80;;;22.40;98.20;;;;;;5029345;28;20228;-35
2022/08/05 02:21:21;;;;;;;5.63;3.95;;;22.40;98.20;;;;;;5021376;28;20612;-35
2022/08/05 02:23:53;;;;;;;7.13;4.18;;;22.40;98.40;;;;;;5014482;28;20244;-36
2022/08/05 02:26:26;;;;;;;5.25;4.03;;;22.40;98.60;;;;;;5028114;28;20199;-35
2022/08/05 02:28:55;;;;;;;5.18;3.97;;;22.40;98.50;;;;;;5029537;28;20323;-35
2022/08/05 02:31:28;;;;;;;7.90;4.28;;;22.40;98.40;;;;;;5009895;28;20696;-35
2022/08/05 02:34:05;;;;;;;4.68;3.70;;;22.40;98.40;;;;;;5009196;28;20225;-36
2022/08/05 02:36:41;;;;;;;4.60;3.92;;;22.50;98.60;;;;;;5009915;28;20197;-36
2022/08/05 02:39:09;;;;;;;5.57;4.22;;;22.50;98.50;;;;;;5028579;28;20582;-35
2022/08/05 02:41:39;;;;;;;5.47;3.83;;;22.50;98.60;;;;;;5018174;28;20271;-38
2022/08/05 02:44:31;;;;;;;5.05;3.80;;;22.50;98.60;;;;;;5008666;28;20194;-38
2022/08/05 02:47:03;;;;;;;5.78;4.00;;;22.50;98.60;;;;;;5009631;28;20202;-38
2022/08/05 02:49:35;;;;;;;4.78;3.88;;;22.50;98.60;;;;;;5008546;28;20221;-38
2022/08/05 02:52:14;;;;;;;7.10;4.00;;;22.50;98.70;;;;;;5009431;28;20193;-38
2022/08/05 02:54:59;;;;;;;6.88;4.70;;;22.50;98.80;;;;;;5009825;28;20209;-36
2022/08/05 02:57:32;;;;;;;5.50;3.97;;;22.50;99.00;;;;;;5011439;28;20307;-36
2022/08/05 03:00:19;;;;;;;6.70;4.22;;;22.50;98.80;;;;;;5028899;28;20245;-35
2022/08/05 03:02:50;;;;;;;5.15;3.85;;;22.50;98.80;;;;;;5029098;28;20703;-36
2022/08/05 03:05:19;;;;;;;5.97;4.10;;;22.50;99.00;;;;;;5028235;28;20779;-36
2022/08/05 03:08:09;;;;;;;4.85;4.07;;;22.50;98.90;;;;;;5024007;28;20592;-36
2022/08/05 03:10:40;;;;;;;4.60;4.20;;;22.50;99.00;;;;;;5019887;28;20699;-35
2022/08/05 03:13:27;;;;;;;5.15;3.70;;;22.50;99.00;;;;;;5026854;28;20220;-35
2022/08/05 03:16:14;;;;;;;6.53;4.30;;;22.50;98.90;;;;;;5012563;28;20564;-35
2022/08/05 03:18:42;;;;;;;4.88;3.72;;;22.50;98.90;;;;;;5008396;28;20194;-35
2022/08/05 03:21:12;;;;;;;6.65;4.20;;;22.60;99.00;;;;;;5008602;28;20200;-35
2022/08/05 03:23:41;;;;;;;6.97;4.40;;;22.50;99.00;;;;;;5008861;28;20205;-35
2022/08/05 03:26:11;;;;;;;4.35;3.95;;;22.60;99.00;;;;;;5008835;28;20649;-34
2022/08/05 03:29:01;;;;;;;4.30;3.72;;;22.50;99.00;;;;;;5010506;28;20232;-34
2022/08/05 03:31:32;;;;;;;13.48;4.80;;;22.50;98.90;;;;;;5042304;28;20205;-33
2022/08/05 03:34:20;;;;;;;7.15;4.50;;;22.60;99.30;;;;;;5007024;28;20217;-33
2022/08/05 03:36:55;;;;;;;5.13;4.22;;;22.50;98.80;;;;;;5008392;28;20212;-32
2022/08/05 03:39:23;;;;;;;6.20;4.80;;;22.50;98.90;;;;;;5007377;28;20201;-32
2022/08/05 03:41:55;;;;;;;8.10;5.05;;;22.50;98.90;;;;;;5008978;28;20236;-32
2022/08/05 03:44:23;;;;;;;9.00;5.25;;;22.40;98.80;;;;;;5008567;28;20292;-33
2022/08/05 03:46:51;;;;;;;5.93;4.97;;;22.40;99.30;;;;;;5021805;28;20647;-32
2022/08/05 03:49:18;;;;;;;8.18;5.05;;;22.40;99.20;;;;;;5027071;28;20714;-32
2022/08/05 03:51:57;;;;;;;7.22;4.95;;;22.30;99.00;;;;;;5026475;28;20216;-35
2022/08/05 03:54:56;;;;;;;10.77;5.55;;;22.30;99.00;;;;;;5027439;28;20207;-35
2022/08/05 03:57:50;;;;;;;9.93;5.57;;;22.20;99.40;;;;;;5028757;28;20200;-33
2022/08/05 04:00:25;;;;;;;6.72;5.22;;;22.20;99.40;;;;;;5027812;28;20628;-32
2022/08/05 04:02:55;;;;;;;8.18;5.43;;;22.10;99.40;;;;;;5027533;28;20220;-35
2022/08/05 04:05:28;;;;;;;8.02;4.78;;;22.10;99.10;;;;;;5025333;28;20683;-35
2022/08/05 04:08:06;;;;;;;10.77;5.53;;;22.00;99.10;;;;;;5022945;28;20221;-35
2022/08/05 04:10:55;;;;;;;6.93;5.22;;;22.00;99.10;;;;;;5012134;28;20259;-35
2022/08/05 04:13:27;;;;;;;7.47;5.38;;;22.00;99.10;;;;;;5028062;28;20205;-35
2022/08/05 04:16:17;;;;;;;10.43;5.82;;;22.00;99.30;;;;;;5027997;28;20620;-35
2022/08/05 04:18:59;;;;;;;8.55;5.68;;;22.00;99.20;;;;;;5022893;28;20189;-35
2022/08/05 04:21:27;;;;;;;10.27;5.13;;;21.90;99.10;;;;;;5009206;28;20219;-35
2022/08/05 04:24:16;;;;;;;6.97;5.20;;;21.90;99.00;;;;;;5024866;28;20205;-36
2022/08/05 04:26:48;;;;;;;8.52;5.72;;;21.80;99.10;;;;;;5027964;28;20208;-35
2022/08/05 04:29:16;;;;;;;8.00;5.30;;;21.80;99.20;;;;;;5030621;28;20696;-35
2022/08/05 04:31:43;;;;;;;8.38;5.20;;;21.80;99.30;;;;;;5046416;28;20219;-35
2022/08/05 04:34:18;;;;;;;7.13;5.30;;;21.80;99.20;;;;;;5047646;28;20273;-35
2022/08/05 04:37:00;;;;;;;6.95;4.95;;;21.80;99.30;;;;;;5038001;28;20205;-34
2022/08/05 04:39:30;;;;;;;8.50;5.28;;;21.80;99.30;;;;;;5024067;28;20690;-33
2022/08/05 04:41:58;;;;;;;8.38;5.25;;;21.80;99.30;;;;;;5007833;28;20261;-34
2022/08/05 04:44:28;;;;;;;8.55;5.05;;;21.70;99.30;;;;;;5008489;28;20644;-34
2022/08/05 04:46:58;;;;;;;7.20;5.30;;;21.70;99.30;;;;;;5011482;28;20228;-34
2022/08/05 04:49:26;;;;;;;6.55;5.25;;;21.70;99.30;;;;;;5024735;28;20227;-34
2022/08/05 04:52:14;;;;;;;11.23;5.75;;;21.70;99.50;;;;;;5031569;28;20205;-34
2022/08/05 04:54:44;;;;;;;10.68;5.63;;;21.70;99.50;;;;;;5030013;28;20220;-34
2022/08/05 04:57:11;;;;;;;10.65;5.68;;;21.70;99.40;;;;;;5021686;28;20263;-34
2022/08/05 04:59:38;;;;;;;7.82;5.85;;;21.70;99.40;;;;;;5011140;28;20240;-34
2022/08/05 05:02:12;;;;;;;9.10;5.63;;;21.80;99.50;;;;;;5011587;28;20201;-34
2022/08/05 05:04:59;;;;;;;9.90;5.75;;;21.70;99.50;;;;;;5009433;28;20224;-34
2022/08/05 05:07:30;;;;;;;10.90;5.60;;;21.70;99.50;;;;;;5011487;28;20194;-34
2022/08/05 05:10:05;;;;;;;6.25;5.47;;;21.70;99.40;;;;;;5011224;28;20210;-34
2022/08/05 05:12:32;;;;;;;14.88;6.20;;;21.70;99.50;;;;;;5010979;28;20206;-34
2022/08/05 05:15:04;;;;;;;10.07;6.00;;;21.70;99.50;;;;;;5025861;28;20200;-33
2022/08/05 05:17:42;;;;;;;12.40;6.82;;;21.70;99.50;;;;;;5031037;28;20215;-34
2022/08/05 05:20:23;;;;;;;9.30;6.05;;;21.70;99.70;;;;;;5028832;28;20220;-34
2022/08/05 05:22:56;;;;;;;8.02;5.22;;;21.70;99.50;;;;;;5030995;28;20282;-34
2022/08/05 05:25:24;;;;;;;7.57;4.80;;;21.70;99.30;;;;;;5024326;28;20205;-34
2022/08/05 05:28:08;;;;;;;11.15;5.85;;;21.70;99.30;;;;;;5018717;28;20208;-36
2022/08/05 05:30:36;;;;;;;6.30;5.22;;;21.60;99.40;;;;;;5037694;28;20225;-38
2022/08/05 05:33:07;;;;;;;9.32;5.88;;;21.60;99.50;;;;;;5011530;28;20225;-40
2022/08/05 05:35:45;;;;;;;8.32;5.13;;;21.60;99.70;;;;;;5009608;28;20279;-35
2022/08/05 05:38:14;;;;;;;10.40;5.63;;;21.60;99.60;;;;;;5027315;28;20217;-36
2022/08/05 05:40:54;;;;;;;8.13;5.65;;;21.70;99.90;;;;;;5030869;28;20201;-36
2022/08/05 05:43:24;;;;;;;6.50;4.93;;;21.70;99.80;;;;;;5030570;28;20631;-36
2022/08/05 05:46:11;;;;;;;8.00;4.80;;;21.60;99.60;;;;;;5031728;28;20248;-36
2022/08/05 05:48:46;;;;;;;9.63;5.80;;;21.50;99.60;;;;;;5025423;28;20297;-36
2022/08/05 05:51:21;;;;;;;9.40;5.80;;;21.50;99.70;;;;;;5030061;28;20232;-36
2022/08/05 05:53:51;;;;;;;10.15;6.15;;;21.50;99.60;;;;;;5045414;28;20699;-35
2022/08/05 05:56:29;;;;;;;10.45;5.60;;;21.60;99.90;;;;;;5030151;28;20242;-36
2022/08/05 05:59:04;;;;;;;8.65;5.72;;;21.60;99.70;;;;;;5029677;28;20331;-36
2022/08/05 06:01:38;;;;;;;11.27;6.13;;;21.60;99.70;;;;;;5029274;28;20681;-35
2022/08/05 06:04:07;;;;;;;7.30;4.72;;;21.60;99.90;;;;;;5029643;28;20654;-36
2022/08/05 06:06:43;;;;;;;9.25;4.60;;;21.50;99.60;;;;;;5010316;28;20213;-36
2022/08/05 06:09:16;;;;;;;12.93;5.57;;;21.50;99.70;;;;;;5008871;28;20244;-36
2022/08/05 06:11:54;;;;;;;10.02;5.65;;;21.60;99.90;;;;;;5010585;28;20198;-36
2022/08/05 06:14:29;;;;;;;9.27;5.80;;;21.60;99.70;;;;;;5029112;28;20208;-36
2022/08/05 06:16:57;;;;;;;7.18;5.00;;;21.60;99.90;;;;;;5028469;28;20228;-37
2022/08/05 06:19:25;;;;;;;7.60;5.32;;;21.60;99.70;;;;;;5028888;28;20288;-36
2022/08/05 06:22:08;;;;;;;8.63;5.88;;;21.60;99.80;;;;;;5021867;28;20222;-36
2022/08/05 06:24:41;;;;;;;9.68;5.30;;;21.60;99.90;;;;;;5009858;28;20193;-36
2022/08/05 06:27:15;;;;;;;12.52;6.72;;;21.60;99.90;;;;;;5009934;28;20284;-36
2022/08/05 06:30:04;;;;;;;11.65;5.60;;;21.70;99.90;;;;;;5026185;28;20220;-36
2022/08/05 06:32:47;;;;;;;13.35;5.05;;;21.70;99.90;;;;;;5027538;28;20538;-36
2022/08/05 06:35:17;;;;;;;11.10;5.78;;;21.70;99.90;;;;;;5028198;28;20197;-36
2022/08/05 06:38:05;;;;;;;8.38;5.35;;;21.80;99.90;;;;;;5009850;28;20751;-36
2022/08/05 06:40:40;;;;;;;10.07;6.32;;;21.80;99.90;;;;;;5027894;28;20618;-36
2022/08/05 06:43:12;;;;;;;8.25;6.00;;;21.80;99.90;;;;;;5029512;28;20694;-36
2022/08/05 06:45:59;;;;;;;6.25;4.72;;;21.80;99.90;;;;;;5029269;28;20663;-36
2022/08/05 06:48:35;;;;;;;12.75;5.35;;;21.80;99.90;;;;;;5028585;28;20299;-36
2022/08/05 06:51:25;;;;;;;8.98;5.70;;;21.80;99.90;;;;;;5028612;28;20559;-35
2022/08/05 06:53:59;;;;;;;6.15;5.13;;;21.80;99.90;;;;;;5027859;28;20224;-36
2022/08/05 06:56:29;;;;;;;9.57;5.60;;;21.80;99.90;;;;;;5018597;28;20204;-35
2022/08/05 06:59:04;;;;;;;10.10;5.72;;;21.80;99.90;;;;;;5008960;28;20229;-35
2022/08/05 07:01:35;;;;;;;13.43;5.85;;;21.80;99.90;;;;;;5007755;28;20294;-35
2022/08/05 07:04:07;;;;;;;9.10;5.35;;;21.90;99.90;;;;;;5008997;28;20233;-35
2022/08/05 07:06:37;;;;;;;11.30;5.43;;;21.90;99.90;;;;;;5009069;28;20249;-35
2022/08/05 07:09:04;;;;;;;7.60;5.03;;;21.80;99.90;;;;;;5008533;28;20236;-35
2022/08/05 07:11:33;;;;;;;9.13;5.45;;;21.80;99.90;;;;;;5009701;28;20263;-37
2022/08/05 07:17:00;;;;;;;13.20;6.50;;;21.80;99.90;;;;;;5028653;28;20236;-35
2022/08/05 07:19:49;;;;;;;9.77;5.88;;;21.80;99.90;;;;;;5026348;28;20756;-37
2022/08/05 07:22:38;;;;;;;8.80;5.35;;;21.80;99.90;;;;;;5028594;28;20205;-37
2022/08/05 07:25:09;;;;;;;8.93;5.45;;;21.70;99.90;;;;;;5028373;28;20283;-36
2022/08/05 07:27:56;;;;;;;6.93;4.43;;;21.80;99.90;;;;;;5014531;28;20292;-36
2022/08/05 07:30:35;;;;;;;7.70;5.28;;;21.80;99.90;;;;;;5012054;28;20280;-35
2022/08/05 07:33:11;;;;;;;8.07;5.75;;;21.80;99.90;;;;;;5007308;28;20202;-36
2022/08/05 07:35:44;;;;;;;10.38;5.63;;;21.80;99.90;;;;;;5008735;28;20623;-36
2022/08/05 07:38:32;;;;;;;7.20;5.10;;;21.90;99.90;;;;;;5007421;28;20651;-36
2022/08/05 07:41:14;;;;;;;7.45;4.97;;;21.90;99.90;;;;;;5008428;28;20213;-36
2022/08/05 07:44:03;;;;;;;9.70;5.57;;;21.90;99.90;;;;;;5010186;28;20582;-37
2022/08/05 07:46:31;;;;;;;5.75;4.93;;;22.00;99.90;;;;;;5008969;28;20229;-36
2022/08/05 07:49:01;;;;;;;8.73;5.40;;;22.00;99.90;;;;;;5008442;28;20660;-36
2022/08/05 07:51:36;;;;;;;6.20;4.30;;;22.00;99.90;;;;;;5006615;28;20311;-36
2022/08/05 07:54:27;;;;;;;10.30;5.22;;;22.00;99.90;;;;;;5008363;28;20208;-36
2022/08/05 07:57:01;;;;;;;9.07;5.50;;;22.10;99.90;;;;;;5008513;28;20204;-36
2022/08/05 07:59:48;;;;;;;8.23;6.15;;;22.10;99.90;;;;;;5007823;28;20340;-36
2022/08/05 08:02:16;;;;;;;10.70;5.53;;;22.10;99.90;;;;;;5024933;28;20319;-36
2022/08/05 08:04:45;;;;;;;7.75;4.82;;;22.10;99.90;;;;;;5014510;28;20589;-37
2022/08/05 08:07:13;;;;;;;7.53;5.28;;;22.10;99.90;;;;;;5009050;28;20629;-36
2022/08/05 08:09:42;;;;;;;9.48;4.78;;;22.10;99.90;;;;;;5008643;28;20700;-36
2022/08/05 08:12:12;;;;;;;7.75;5.13;;;22.10;99.90;;;;;;5008773;28;20221;-36
2022/08/05 08:15:00;;;;;;;6.57;4.40;;;22.20;99.90;;;;;;5028292;28;20193;-36
2022/08/05 08:17:30;;;;;;;8.90;4.65;;;22.20;99.90;;;;;;5026063;28;20881;-35
2022/08/05 08:20:04;;;;;;;6.68;4.65;;;22.20;99.90;;;;;;5008398;28;20225;-36
2022/08/05 08:22:54;;;;;;;7.82;4.85;;;22.30;99.90;;;;;;5012093;28;20607;-35
2022/08/05 08:25:22;;;;;;;6.10;5.10;;;22.30;99.90;;;;;;5012094;28;20193;-36
2022/08/05 08:28:10;;;;;;;8.98;5.20;;;22.30;99.90;;;;;;5012118;28;20209;-36
2022/08/05 08:30:45;;;;;;;8.57;4.40;;;22.30;99.90;;;;;;5040951;28;20247;-36
2022/08/05 08:33:16;;;;;;;8.70;5.30;;;22.40;99.90;;;;;;5049670;28;20196;-35
2022/08/05 08:35:45;;;;;;;9.73;4.90;;;22.40;99.90;;;;;;5023977;28;20217;-36
2022/08/05 08:38:23;;;;;;;8.82;5.30;;;22.40;99.90;;;;;;5012456;28;20295;-35
2022/08/05 08:41:06;;;;;;;10.07;5.00;;;22.40;99.90;;;;;;5012126;28;20702;-35
2022/08/05 08:43:35;;;;;;;8.93;4.38;;;22.40;99.90;;;;;;5010077;28;20258;-35
2022/08/05 08:46:25;;;;;;;9.25;4.28;;;22.40;99.90;;;;;;5011641;28;20239;-37
2022/08/05 08:48:53;;;;;;;6.20;4.03;;;22.50;99.90;;;;;;5016383;28;20199;-35
2022/08/05 08:51:45;;;;;;;7.32;3.60;;;22.50;99.90;;;;;;5019463;28;20300;-35
2022/08/05 08:54:34;;;;;;;7.55;4.22;;;22.50;99.90;;;;;;5013885;28;20221;-36
2022/08/05 08:57:07;;;;;;;6.68;4.18;;;22.60;99.90;;;;;;5031971;28;20609;-36
2022/08/05 08:59:40;;;;;;;7.68;4.18;;;22.60;99.90;;;;;;5029629;28;20873;-35
2022/08/05 09:02:13;;;;;;;6.55;4.00;;;22.60;99.90;;;;;;5031084;28;20213;-33
2022/08/05 09:04:48;;;;;;;8.48;3.55;;;22.60;99.90;;;;;;5030399;28;20304;-32
2022/08/05 09:07:36;;;;;;;5.68;3.88;;;22.70;99.90;;;;;;5030505;28;20562;-33
2022/08/05 09:10:26;;;;;;;9.68;3.58;;;22.70;99.90;;;;;;5028838;28;20276;-33
2022/08/05 09:12:56;;;;;;;7.35;3.05;;;22.70;99.90;;;;;;5030320;28;20225;-33
2022/08/05 09:15:31;;;;;;;7.40;2.90;;;22.70;99.80;;;;;;5031037;28;20205;-33
2022/08/05 09:18:08;;;;;;;6.78;2.80;;;22.70;99.70;;;;;;5030849;28;20311;-32
2022/08/05 09:20:42;;;;;;;4.40;2.47;;;22.70;99.70;;;;;;5030370;28;20196;-32
2022/08/05 09:23:14;;;;;;;4.90;2.20;;;22.70;99.60;;;;;;5030541;28;20204;-32
2022/08/05 09:25:50;;;;;;;4.38;1.90;;;22.60;99.70;;;;;;5029947;28;20256;-32
2022/08/05 09:28:31;;;;;;;5.40;2.42;;;22.60;99.80;;;;;;5026586;28;20275;-35
2022/08/05 09:31:03;;;;;;;5.72;2.00;;;22.60;99.90;;;;;;5044897;28;20220;-33
2022/08/05 09:33:59;;;;;;;6.00;2.15;;;22.60;99.50;;;;;;5049986;28;20199;-34
2022/08/05 09:36:51;;;;;;;3.30;1.80;;;22.70;99.00;;;;;;5050124;28;20310;-34
2022/08/05 09:39:26;;;;;;;3.50;1.52;;;22.70;98.80;;;;;;5050273;28;20192;-33
2022/08/05 09:42:14;;;;;;;5.20;1.52;;;22.70;99.00;;;;;;5050315;28;20207;-33
2022/08/05 09:44:53;;;;;;;2.28;1.33;;;22.70;99.10;;;;;;5009372;28;20213;-33
2022/08/05 09:47:25;;;;;;;4.47;2.42;;;22.80;99.40;;;;;;5011644;28;20304;-34
2022/08/05 09:50:12;;;;;;;4.60;1.80;;;22.90;99.30;;;;;;5025375;28;20200;-35
2022/08/05 09:53:00;;;;;;;6.15;2.50;;;22.90;99.10;;;;;;5030801;28;20205;-32
2022/08/05 09:55:34;;;;;;;7.38;2.88;;;22.90;99.00;;;;;;5029007;28;20197;-33
2022/08/05 09:58:22;;;;;;;6.07;2.75;;;22.90;98.80;;;;;;5020079;28;20197;-34
2022/08/05 10:01:00;;;;;;;4.40;2.22;;;22.90;98.50;;;;;;5015621;28;20244;-34
2022/08/05 10:03:58;;;;;;;3.72;2.03;;;22.80;98.90;;;;;;5020569;28;20216;-33
2022/08/05 10:06:27;;;;;;;4.20;2.15;;;22.80;99.10;;;;;;5028222;28;20653;-34
2022/08/05 10:09:08;;;;;;;2.55;2.20;;;22.70;99.10;;;;;;5029727;28;20722;-33
2022/08/05 10:11:51;;;;;;;3.58;1.98;;;22.80;99.20;;;;;;5028681;28;20227;-32
2022/08/05 10:14:22;;;;;;;3.22;1.90;;;22.80;99.30;;;;;;5029606;28;20205;-32
2022/08/05 10:16:57;;;;;;;2.05;1.50;;;22.90;99.30;;;;;;5024476;28;20203;-32
2022/08/05 10:19:28;;;;;;;2.53;1.48;;;22.90;99.20;;;;;;5024087;28;20205;-33
2022/08/05 10:22:16;;;;;;;1.75;1.35;;;23.00;99.40;;;;;;5009793;28;20279;-33
2022/08/05 10:24:56;;;;;;;3.42;1.90;;;23.00;99.50;;;;;;5009831;28;20209;-32
2022/08/05 10:27:27;;;;;;;2.85;1.40;;;23.10;99.40;;;;;;5009748;28;20592;-33
2022/08/05 10:30:14;;;;;;;2.25;1.60;;;23.20;99.50;;;;;;5030578;28;20311;-33
2022/08/05 10:33:07;;;;;;;2.70;1.13;;;23.30;98.50;;;;;;5049531;28;20239;-32
2022/08/05 10:35:41;;;;;;;3.58;1.58;;;23.30;98.40;;;;;;5009339;28;20719;-32
2022/08/05 10:38:13;;;;;;;1.50;1.17;;;23.30;98.00;;;;;;5025452;28;20232;-35
2022/08/05 10:40:51;;;;;;;2.67;1.38;;;23.30;98.60;;;;;;5029271;28;20205;-37
2022/08/05 10:43:34;;;;;;;4.88;1.27;;;23.40;98.10;;;;;;5026893;28;20204;-37
2022/08/05 10:46:07;;;;;;;3.78;1.33;;;23.40;97.80;;;;;;5028882;28;20204;-37
2022/08/05 10:48:54;;;;;;;2.15;1.30;;;23.30;97.70;;;;;;5024215;28;20263;-36
2022/08/05 10:51:40;;;;;;;2.83;1.20;;;23.30;98.00;;;;;;5018598;28;20264;-37
2022/08/05 10:55:05;;;;;;;1.75;1.08;;;23.30;97.10;;;;;;5018758;28;20302;-37
2022/08/05 10:57:32;;;;;;;5.00;1.40;;;23.30;97.50;;;;;;5009525;28;20212;-37
2022/08/05 11:00:08;;;;;;;1.85;1.30;;;23.30;97.00;;;;;;5008985;28;20302;-37
2022/08/05 11:03:02;;;;;;;5.72;1.75;;;23.30;96.70;;;;;;5012708;28;20738;-34
2022/08/05 11:06:03;;;;;;;6.38;1.52;;;23.30;97.10;;;;;;5010296;28;20213;-37
2022/08/05 11:08:30;;;;;;;2.67;1.13;;;23.40;95.50;;;;;;5012051;28;20215;-37
2022/08/05 11:11:34;;;;;;;1.73;1.40;;;23.40;95.60;;;;;;5015861;28;20325;-37
2022/08/05 11:14:32;;;;;;;2.65;1.45;;;23.30;94.30;;;;;;5027541;28;20271;-37
2022/08/05 11:17:25;;;;;;;1.55;1.40;;;23.20;95.10;;;;;;5029041;28;20200;-37
2022/08/05 11:20:50;;;;;;;3.65;1.83;;;23.20;95.80;;;;;;5027724;28;20200;-37
2022/08/05 11:23:42;;;;;;;3.05;1.90;;;23.20;95.10;;;;;;5027085;28;20319;-38
2022/08/05 11:26:30;;;;;;;4.05;2.03;;;23.30;95.80;;;;;;5010086;28;20259;-38
2022/08/05 11:29:02;;;;;;;4.43;1.80;;;23.30;95.30;;;;;;5024129;28;20322;-33
2022/08/05 11:31:43;;;;;;;3.00;1.80;;;23.40;96.20;;;;;;5047122;28;20949;-34
2022/08/05 11:34:36;;;;;;;3.10;1.98;;;23.40;96.30;;;;;;5047775;28;20203;-34
2022/08/05 11:37:04;;;;;;;3.53;1.90;;;23.50;94.70;;;;;;5048145;28;20212;-34
2022/08/05 11:39:52;;;;;;;2.50;1.60;;;23.50;95.80;;;;;;5048437;28;20197;-34
2022/08/05 11:42:33;;;;;;;2.78;1.92;;;23.50;94.80;;;;;;5026974;28;20288;-34
2022/08/05 11:45:09;;;;;;;2.90;1.50;;;23.50;95.80;;;;;;5014763;28;20577;-34
2022/08/05 11:47:59;;;;;;;4.70;2.00;;;23.60;95.80;;;;;;5028003;28;20698;-34
2022/08/05 11:50:26;;;;;;;1.75;1.30;;;23.60;95.00;;;;;;5006903;28;20212;-34
2022/08/05 11:52:54;;;;;;;3.17;1.20;;;23.60;95.70;;;;;;5007046;28;20277;-34
2022/08/05 11:55:24;;;;;;;2.78;1.20;;;23.60;95.30;;;;;;5022654;28;20206;-34
2022/08/05 11:58:04;;;;;;;4.63;1.50;;;23.70;95.40;;;;;;5007157;28;20213;-34
2022/08/05 12:00:39;;;;;;;1.67;1.08;;;23.70;95.50;;;;;;5042091;28;20236;-34
2022/08/05 12:03:19;;;;;;;1.70;0.98;;;23.80;96.00;;;;;;5011332;28;20225;-34
2022/08/05 12:06:03;;;;;;;3.65;1.13;;;23.80;94.30;;;;;;5008006;28;20209;-34
2022/08/05 12:08:33;;;;;;;2.80;1.30;;;23.90;94.70;;;;;;5011955;28;20225;-34
2022/08/05 12:11:08;;;;;;;5.00;1.40;;;23.90;95.00;;;;;;5026728;28;20292;-33
2022/08/05 12:14:00;;;;;;;4.72;1.30;;;23.90;94.60;;;;;;5022183;28;20214;-34
2022/08/05 12:16:35;;;;;;;3.50;1.17;;;23.80;93.50;;;;;;5007583;28;20566;-34
2022/08/05 12:19:09;;;;;;;1.65;1.10;;;23.80;94.30;;;;;;5014831;28;20285;-33
2022/08/05 12:21:59;;;;;;;3.88;1.02;;;23.80;94.20;;;;;;5026785;28;20213;-34
2022/08/05 12:24:27;;;;;;;2.03;1.08;;;23.80;93.90;;;;;;5027793;28;20239;-34
2022/08/05 12:26:56;;;;;;;2.40;0.98;;;23.80;94.50;;;;;;5028015;28;20201;-34
2022/08/05 12:29:27;;;;;;;2.55;0.98;;;23.80;94.40;;;;;;5031872;28;20215;-34
2022/08/05 12:32:08;;;;;;;1.80;0.95;;;23.80;93.70;;;;;;5047782;28;20680;-34
2022/08/05 12:34:37;;;;;;;2.45;1.10;;;23.80;93.00;;;;;;5023254;28;20670;-34
2022/08/05 12:37:12;;;;;;;1.48;1.05;;;23.80;94.00;;;;;;4991070;28;20589;-34
2022/08/05 12:39:51;;;;;;;1.85;1.10;;;23.80;94.10;;;;;;5007753;28;20672;-34
2022/08/05 12:42:22;;;;;;;4.50;1.10;;;23.80;93.80;;;;;;5022532;28;20213;-33
2022/08/05 12:44:51;;;;;;;1.10;0.80;;;23.70;93.20;;;;;;5007722;28;20204;-34
2022/08/05 12:47:29;;;;;;;4.35;1.33;;;23.70;93.70;;;;;;5006629;28;20252;-34
2022/08/05 12:49:58;;;;;;;1.90;0.88;;;23.70;92.70;;;;;;5006240;28;20209;-34
2022/08/05 12:52:34;;;;;;;2.50;0.85;;;23.80;92.90;;;;;;5011051;28;20650;-34
2022/08/05 12:55:23;;;;;;;2.88;1.17;;;23.80;93.00;;;;;;5026095;28;20208;-34
2022/08/05 12:57:57;;;;;;;2.47;0.82;;;23.80;93.60;;;;;;5027097;28;20201;-34
2022/08/05 13:00:48;;;;;;;2.53;0.93;;;23.90;94.10;;;;;;5027287;28;20247;-33
2022/08/05 13:03:37;;;;;;;6.72;0.93;;;23.90;93.70;;;;;;5026028;28;20259;-34
2022/08/05 13:06:18;;;;;;;5.30;1.23;;;24.00;94.40;;;;;;5028245;28;20308;-34
2022/08/05 13:08:46;;;;;;;3.53;0.90;;;24.00;92.00;;;;;;5011329;28;20213;-34
2022/08/05 13:11:28;;;;;;;4.25;0.95;;;24.00;93.50;;;;;;5012794;28;20209;-34
2022/08/05 13:14:20;;;;;;;2.25;0.80;;;24.00;91.30;;;;;;5020364;28;20208;-35
2022/08/05 13:17:02;;;;;;;1.65;0.75;;;24.00;93.10;;;;;;5031225;28;20201;-34
2022/08/05 13:19:30;;;;;;;2.28;0.90;;;24.00;92.40;;;;;;5029153;28;20201;-34
2022/08/05 13:22:19;;;;;;;3.83;0.90;;;24.00;92.90;;;;;;5021538;28;20214;-33
2022/08/05 13:24:57;;;;;;;3.33;0.80;;;24.00;93.00;;;;;;5024726;28;20222;-34
2022/08/05 13:27:39;;;;;;;2.15;0.75;;;24.00;93.70;;;;;;5018207;28;20201;-34
2022/08/05 13:30:09;;;;;;;4.28;0.77;;;24.10;92.50;;;;;;5029661;28;20211;-34
2022/08/05 13:32:57;;;;;;;1.25;0.70;;;24.10;92.00;;;;;;5050534;28;20218;-33
2022/08/05 13:35:29;;;;;;;3.20;1.05;;;24.10;92.60;;;;;;5048429;28;20180;-33
2022/08/05 13:38:09;;;;;;;3.25;0.70;;;24.10;92.70;;;;;;5050460;28;20408;-33
2022/08/05 13:40:57;;;;;;;1.30;0.60;;;24.10;91.10;;;;;;5037568;28;20222;-33
2022/08/05 13:43:26;;;;;;;2.85;0.60;;;24.10;90.80;;;;;;5012294;28;20230;-33